createdAt,value
2022-08-28T00:02:25.770Z,15.50
2022-08-28T00:04:54.040Z,15.50
2022-08-28T00:07:23.357Z,15.60
2022-08-28T00:09:51.319Z,15.50
2022-08-28T00:12:19.672Z,15.50
2022-08-28T00:14:47.664Z,15.40
2022-08-28T00:17:15.831Z,15.40
2022-08-28T00:19:43.905Z,15.40
2022-08-28T00:22:11.931Z,15.50
2022-08-28T00:24:42.835Z,15.40
2022-08-28T00:27:25.235Z,15.40
2022-08-28T00:29:53.239Z,15.40
2022-08-28T00:32:25.241Z,15.40
2022-08-28T00:34:53.496Z,15.40
2022-08-28T00:37:24.589Z,15.50
2022-08-28T00:39:54.575Z,15.40
2022-08-28T00:42:22.829Z,15.50
2022-08-28T00:44:50.811Z,15.50
2022-08-28T00:47:19.259Z,15.50
2022-08-28T00:49:51.638Z,15.40
2022-08-28T00:52:21.406Z,15.50
2022-08-28T00:54:58.353Z,15.50
2022-08-28T00:57:32.542Z,15.50
2022-08-28T01:02:44.326Z,15.60
2022-08-28T01:05:12.672Z,15.60
2022-08-28T01:08:10.617Z,15.60
2022-08-28T01:10:41.625Z,15.60
2022-08-28T01:13:12.871Z,15.60
2022-08-28T01:15:42.184Z,15.60
2022-08-28T01:18:13.642Z,15.60
2022-08-28T01:20:51.338Z,15.50
2022-08-28T01:23:35.642Z,15.40
2022-08-28T01:26:08.170Z,15.40
2022-08-28T01:28:40.569Z,15.40
2022-08-28T01:31:11.590Z,15.40
2022-08-28T01:33:42.287Z,15.40
2022-08-28T01:36:12.756Z,15.40
2022-08-28T01:38:42.258Z,15.40
2022-08-28T01:41:14.385Z,15.40
2022-08-28T01:43:42.824Z,15.40
2022-08-28T01:46:12.733Z,15.40
2022-08-28T01:48:45.460Z,15.40
2022-08-28T01:51:14.762Z,15.40
2022-08-28T01:53:45.067Z,15.30
2022-08-28T01:56:17.825Z,15.40
2022-08-28T01:58:48.004Z,15.40
2022-08-28T02:01:20.416Z,15.40
2022-08-28T02:03:49.198Z,15.40
2022-08-28T02:06:17.798Z,15.40
2022-08-28T02:08:48.018Z,15.40
2022-08-28T02:11:17.895Z,15.40
2022-08-28T02:13:45.898Z,15.40
2022-08-28T02:16:19.020Z,15.30
2022-08-28T02:18:47.136Z,15.30
2022-08-28T02:21:15.132Z,15.30
2022-08-28T02:23:44.503Z,15.30
2022-08-28T02:26:13.613Z,15.30
2022-08-28T02:28:43.457Z,15.20
2022-08-28T02:31:13.365Z,15.20
2022-08-28T02:33:43.579Z,15.30
2022-08-28T02:36:14.489Z,15.20
2022-08-28T02:38:43.772Z,15.20
2022-08-28T02:41:12.174Z,15.20
2022-08-28T02:43:42.888Z,15.20
2022-08-28T02:46:11.286Z,15.20
2022-08-28T02:48:40.534Z,15.20
2022-08-28T02:51:11.989Z,15.10
2022-08-28T02:53:40.568Z,15.00
2022-08-28T02:56:08.940Z,15.00
2022-08-28T02:58:37.868Z,15.00
2022-08-28T03:01:10.989Z,15.00
2022-08-28T03:03:41.427Z,14.90
2022-08-28T03:06:12.144Z,14.90
2022-08-28T03:08:42.103Z,14.90
2022-08-28T03:11:10.612Z,14.90
2022-08-28T03:13:38.773Z,14.90
2022-08-28T03:16:08.785Z,14.80
2022-08-28T03:18:36.897Z,14.80
2022-08-28T03:21:05.114Z,14.80
2022-08-28T03:23:33.504Z,14.70
2022-08-28T03:26:04.908Z,14.70
2022-08-28T03:28:35.700Z,14.60
2022-08-28T03:31:04.359Z,14.60
2022-08-28T03:33:34.797Z,14.60
2022-08-28T03:36:04.639Z,14.60
2022-08-28T03:38:33.801Z,14.60
2022-08-28T03:41:02.266Z,14.60
2022-08-28T03:43:31.766Z,14.50
2022-08-28T03:46:01.322Z,14.50
2022-08-28T03:48:33.430Z,14.40
2022-08-28T03:51:03.315Z,14.30
2022-08-28T03:53:31.437Z,14.20
2022-08-28T03:56:00.083Z,14.30
2022-08-28T03:58:29.330Z,14.30
2022-08-28T04:00:57.407Z,14.20
2022-08-28T04:03:25.583Z,14.20
2022-08-28T04:05:53.708Z,14.20
2022-08-28T04:08:23.813Z,14.10
2022-08-28T04:10:52.519Z,14.10
2022-08-28T04:13:22.463Z,14.10
2022-08-28T04:15:58.533Z,14.20
2022-08-28T04:18:27.004Z,14.10
2022-08-28T04:21:02.546Z,14.10
2022-08-28T04:23:32.203Z,14.10
2022-08-28T04:26:00.310Z,14.10
2022-08-28T04:28:29.175Z,14.10
2022-08-28T04:30:57.245Z,14.10
2022-08-28T04:33:27.015Z,14.10
2022-08-28T04:35:56.179Z,14.10
2022-08-28T04:38:24.643Z,14.00
2022-08-28T04:40:53.947Z,13.90
2022-08-28T04:43:22.360Z,14.00
2022-08-28T04:45:52.772Z,14.00
2022-08-28T04:48:23.375Z,14.00
2022-08-28T04:50:51.539Z,14.00
2022-08-28T04:53:25.219Z,14.00
2022-08-28T04:55:58.860Z,14.00
2022-08-28T04:58:27.447Z,14.00
2022-08-28T05:00:56.162Z,14.00
2022-08-28T05:03:24.827Z,14.00
2022-08-28T05:05:55.714Z,14.00
2022-08-28T05:08:27.727Z,14.00
2022-08-28T05:10:58.810Z,14.10
2022-08-28T05:13:28.119Z,14.10
2022-08-28T05:15:58.920Z,14.00
2022-08-28T05:18:26.950Z,14.00
2022-08-28T05:20:57.323Z,14.00
2022-08-28T05:23:25.860Z,14.00
2022-08-28T05:25:54.028Z,13.90
2022-08-28T05:28:25.166Z,13.90
2022-08-28T05:30:53.638Z,13.90
2022-08-28T05:33:21.687Z,13.80
2022-08-28T05:35:49.704Z,13.80
2022-08-28T05:38:18.470Z,13.90
2022-08-28T05:40:47.847Z,13.90
2022-08-28T05:43:18.745Z,13.90
2022-08-28T05:46:00.036Z,13.90
2022-08-28T05:48:37.146Z,14.00
2022-08-28T05:51:08.143Z,14.00
2022-08-28T05:53:38.032Z,14.00
2022-08-28T05:56:06.431Z,13.90
2022-08-28T05:58:34.882Z,14.00
2022-08-28T06:01:13.357Z,14.00
2022-08-28T06:03:42.880Z,14.10
2022-08-28T06:06:12.638Z,14.10
2022-08-28T06:08:58.693Z,14.20
2022-08-28T06:11:30.983Z,14.20
2022-08-28T06:14:01.493Z,14.30
2022-08-28T06:16:32.203Z,14.40
2022-08-28T06:19:01.366Z,14.40
2022-08-28T06:21:30.735Z,14.50
2022-08-28T06:23:58.689Z,14.60
2022-08-28T06:26:27.266Z,14.80
2022-08-28T06:28:55.605Z,14.90
2022-08-28T06:31:26.495Z,15.10
2022-08-28T06:33:57.318Z,15.30
2022-08-28T06:36:27.228Z,15.50
2022-08-28T06:38:55.553Z,15.70
2022-08-28T06:41:24.041Z,15.90
2022-08-28T06:43:52.276Z,16.20
2022-08-28T06:46:20.331Z,16.40
2022-08-28T06:48:49.071Z,16.60
2022-08-28T06:51:19.934Z,16.80
2022-08-28T06:53:51.463Z,17.00
2022-08-28T06:56:26.178Z,17.00
2022-08-28T06:58:57.226Z,17.20
2022-08-28T07:01:29.119Z,17.40
2022-08-28T07:04:00.645Z,17.50
2022-08-28T07:06:34.046Z,17.70
2022-08-28T07:09:02.717Z,17.80
2022-08-28T07:11:32.469Z,17.90
2022-08-28T07:14:01.190Z,18.00
2022-08-28T07:16:33.334Z,18.10
2022-08-28T07:19:04.052Z,18.10
2022-08-28T07:21:38.330Z,18.30
2022-08-28T07:24:07.682Z,18.40
2022-08-28T07:26:37.185Z,18.50
2022-08-28T07:29:10.560Z,18.60
2022-08-28T07:31:41.916Z,18.70
2022-08-28T07:34:11.555Z,18.90
2022-08-28T07:36:41.712Z,18.90
2022-08-28T07:39:11.762Z,18.90
2022-08-28T07:41:42.619Z,19.00
2022-08-28T07:44:29.401Z,19.20
2022-08-28T07:46:59.573Z,19.30
2022-08-28T07:49:27.704Z,19.50
2022-08-28T07:51:57.166Z,19.70
2022-08-28T07:54:25.716Z,19.70
2022-08-28T07:56:54.083Z,19.80
2022-08-28T07:59:22.436Z,19.80
2022-08-28T08:01:52.902Z,19.80
2022-08-28T08:04:22.752Z,19.90
2022-08-28T08:06:55.760Z,20.00
2022-08-28T08:09:28.749Z,20.20
2022-08-28T08:11:57.465Z,20.30
2022-08-28T08:14:26.054Z,20.30
2022-08-28T08:16:54.696Z,20.30
2022-08-28T08:19:22.715Z,20.20
2022-08-28T08:21:55.286Z,20.20
2022-08-28T08:24:26.850Z,20.20
2022-08-28T08:27:00.759Z,20.10
2022-08-28T08:29:31.911Z,20.20
2022-08-28T08:32:05.558Z,20.20
2022-08-28T08:34:35.379Z,20.20
2022-08-28T08:37:03.655Z,20.30
2022-08-28T08:39:32.393Z,20.50
2022-08-28T08:42:06.534Z,20.60
2022-08-28T08:44:37.860Z,20.70
2022-08-28T08:47:16.837Z,20.70
2022-08-28T08:49:52.912Z,20.80
2022-08-28T08:52:32.277Z,21.10
2022-08-28T08:55:11.388Z,21.20
2022-08-28T08:57:49.487Z,21.10
2022-08-28T09:00:18.868Z,21.20
2022-08-28T09:02:59.067Z,21.20
2022-08-28T09:05:40.171Z,21.20
2022-08-28T09:08:14.094Z,21.00
2022-08-28T09:10:53.154Z,20.90
2022-08-28T09:13:29.771Z,20.70
2022-08-28T09:15:57.797Z,20.50
2022-08-28T09:18:28.457Z,20.50
2022-08-28T09:21:00.363Z,20.40
2022-08-28T09:23:29.839Z,20.50
2022-08-28T09:26:01.643Z,20.40
2022-08-28T09:28:35.600Z,20.50
2022-08-28T09:31:06.795Z,20.50
2022-08-28T09:33:41.921Z,20.40
2022-08-28T09:36:31.551Z,20.70
2022-08-28T09:39:18.341Z,20.80
2022-08-28T09:42:16.990Z,20.80
2022-08-28T09:44:59.706Z,20.90
2022-08-28T09:47:48.723Z,21.00
2022-08-28T09:50:21.488Z,20.90
2022-08-28T09:52:50.359Z,20.80
2022-08-28T09:55:24.595Z,20.70
2022-08-28T09:57:54.879Z,20.70
2022-08-28T10:00:24.215Z,20.70
2022-08-28T10:03:00.501Z,20.70
2022-08-28T10:05:39.809Z,20.90
2022-08-28T10:08:20.733Z,20.90
2022-08-28T10:10:54.517Z,20.80
2022-08-28T10:13:30.028Z,21.00
2022-08-28T10:16:15.028Z,21.10
2022-08-28T10:18:50.037Z,21.20
2022-08-28T10:21:28.052Z,21.20
2022-08-28T10:24:23.344Z,20.90
2022-08-28T10:27:02.896Z,20.80
2022-08-28T10:29:40.044Z,20.80
2022-08-28T10:32:28.710Z,20.80
2022-08-28T10:35:06.931Z,20.80
2022-08-28T10:37:45.788Z,20.80
2022-08-28T10:40:20.278Z,20.90
2022-08-28T10:42:54.294Z,20.90
2022-08-28T10:45:25.079Z,20.70
2022-08-28T10:47:59.874Z,20.90
2022-08-28T10:50:31.146Z,21.10
2022-08-28T10:53:03.891Z,21.40
2022-08-28T10:55:39.140Z,21.60
2022-08-28T10:58:24.469Z,21.90
2022-08-28T11:00:57.008Z,21.80
2022-08-28T11:03:34.758Z,21.60
2022-08-28T11:06:10.138Z,21.50
2022-08-28T11:08:40.695Z,21.50
2022-08-28T11:11:15.472Z,21.40
2022-08-28T11:13:54.239Z,21.50
2022-08-28T11:16:26.049Z,21.50
2022-08-28T11:19:24.723Z,21.40
2022-08-28T11:21:57.107Z,21.60
2022-08-28T11:24:41.438Z,21.80
2022-08-28T11:27:36.557Z,21.50
2022-08-28T11:30:32.707Z,21.60
2022-08-28T11:33:04.126Z,21.50
2022-08-28T11:35:48.337Z,21.50
2022-08-28T11:39:04.688Z,21.60
2022-08-28T11:41:35.237Z,21.60
2022-08-28T11:44:39.387Z,21.60
2022-08-28T11:47:37.060Z,21.30
2022-08-28T11:50:14.267Z,21.10
2022-08-28T11:53:05.718Z,21.00
2022-08-28T11:55:50.477Z,21.10
2022-08-28T11:58:26.156Z,21.30
2022-08-28T12:01:01.621Z,21.40
2022-08-28T12:03:37.111Z,21.60
2022-08-28T12:06:07.279Z,21.90
2022-08-28T12:09:05.053Z,22.10
2022-08-28T12:11:56.722Z,22.20
2022-08-28T12:15:07.202Z,22.30
2022-08-28T12:17:57.584Z,22.50
2022-08-28T12:20:37.719Z,22.60
2022-08-28T12:23:31.616Z,22.30
2022-08-28T12:26:04.751Z,22.20
2022-08-28T12:28:41.603Z,22.00
2022-08-28T12:31:43.699Z,22.10
2022-08-28T12:34:19.803Z,22.00
2022-08-28T12:36:55.724Z,22.00
2022-08-28T12:39:24.452Z,22.10
2022-08-28T12:41:52.885Z,21.80
2022-08-28T12:44:26.403Z,21.60
2022-08-28T12:46:55.286Z,21.60
2022-08-28T12:49:34.859Z,21.70
2022-08-28T12:52:16.854Z,21.60
2022-08-28T12:54:46.527Z,21.60
2022-08-28T12:57:16.741Z,21.80
2022-08-28T12:59:48.155Z,22.00
2022-08-28T13:02:25.775Z,22.30
2022-08-28T13:04:57.544Z,22.30
2022-08-28T13:07:30.106Z,22.00
2022-08-28T13:10:03.522Z,22.00
2022-08-28T13:12:55.863Z,22.00
2022-08-28T13:15:55.292Z,21.90
2022-08-28T13:18:49.900Z,21.70
2022-08-28T13:21:35.342Z,21.70
2022-08-28T13:24:26.252Z,21.70
2022-08-28T13:27:03.883Z,21.70
2022-08-28T13:29:32.725Z,21.60
2022-08-28T13:32:04.400Z,21.70
2022-08-28T13:34:34.575Z,21.90
2022-08-28T13:37:07.199Z,21.90
2022-08-28T13:39:42.806Z,22.00
2022-08-28T13:42:13.675Z,22.30
2022-08-28T13:44:50.446Z,22.30
2022-08-28T13:47:22.966Z,21.90
2022-08-28T13:49:50.937Z,21.70
2022-08-28T13:52:19.092Z,21.70
2022-08-28T13:54:49.977Z,21.70
2022-08-28T13:57:19.520Z,21.60
2022-08-28T13:59:53.602Z,21.60
2022-08-28T14:02:47.955Z,21.40
2022-08-28T14:05:20.608Z,21.50
2022-08-28T14:07:50.725Z,21.50
2022-08-28T14:10:18.994Z,21.70
2022-08-28T14:12:47.809Z,21.90
2022-08-28T14:15:16.398Z,22.00
2022-08-28T14:17:46.260Z,21.80
2022-08-28T14:20:15.252Z,21.70
2022-08-28T14:22:43.266Z,21.70
2022-08-28T14:25:12.112Z,21.60
2022-08-28T14:27:40.216Z,21.60
2022-08-28T14:30:09.992Z,21.60
2022-08-28T14:32:40.245Z,21.50
2022-08-28T14:35:11.432Z,21.50
2022-08-28T14:37:39.461Z,21.70
2022-08-28T14:40:09.287Z,21.80
2022-08-28T14:42:47.123Z,22.00
2022-08-28T14:45:15.163Z,22.00
2022-08-28T14:47:46.189Z,21.90
2022-08-28T14:50:16.170Z,21.60
2022-08-28T14:52:44.188Z,21.40
2022-08-28T14:55:14.714Z,21.30
2022-08-28T14:57:48.095Z,21.30
2022-08-28T15:00:19.424Z,21.30
2022-08-28T15:02:47.468Z,21.40
2022-08-28T15:05:17.530Z,21.50
2022-08-28T15:07:47.776Z,21.40
2022-08-28T15:10:16.047Z,21.40
2022-08-28T15:12:47.048Z,21.40
2022-08-28T15:15:20.309Z,21.40
2022-08-28T15:17:50.142Z,21.40
2022-08-28T15:20:19.786Z,21.30
2022-08-28T15:22:47.932Z,21.30
2022-08-28T15:25:15.980Z,21.30
2022-08-28T15:27:44.080Z,21.40
2022-08-28T15:30:12.755Z,21.30
2022-08-28T15:32:44.637Z,21.30
2022-08-28T15:35:16.564Z,21.40
2022-08-28T15:37:45.895Z,21.20
2022-08-28T15:40:31.394Z,21.20
2022-08-28T15:43:05.832Z,21.30
2022-08-28T15:45:37.444Z,21.20
2022-08-28T15:48:05.759Z,21.30
2022-08-28T15:50:33.757Z,21.30
2022-08-28T15:53:03.336Z,21.30
2022-08-28T15:55:36.593Z,21.20
2022-08-28T15:58:05.347Z,21.20
2022-08-28T16:00:44.522Z,21.00
2022-08-28T16:03:12.840Z,20.80
2022-08-28T16:05:41.231Z,20.80
2022-08-28T16:08:11.952Z,20.60
2022-08-28T16:10:41.082Z,20.60
2022-08-28T16:13:09.218Z,20.70
2022-08-28T16:15:37.234Z,20.60
2022-08-28T16:18:09.111Z,20.60
2022-08-28T16:20:37.376Z,20.60
2022-08-28T16:23:05.396Z,20.60
2022-08-28T16:25:35.569Z,20.60
2022-08-28T16:28:05.480Z,20.70
2022-08-28T16:30:37.560Z,20.70
2022-08-28T16:33:20.281Z,20.70
2022-08-28T16:35:56.287Z,20.60
2022-08-28T16:38:26.456Z,20.60
2022-08-28T16:40:56.232Z,20.60
2022-08-28T16:43:24.251Z,20.60
2022-08-28T16:45:52.810Z,20.50
2022-08-28T16:48:20.925Z,20.40
2022-08-28T16:50:48.937Z,20.20
2022-08-28T16:53:24.418Z,20.20
2022-08-28T16:55:56.623Z,20.20
2022-08-28T16:58:25.283Z,20.20
2022-08-28T17:00:54.995Z,20.10
2022-08-28T17:03:26.641Z,20.10
2022-08-28T17:05:56.755Z,20.10
2022-08-28T17:08:24.811Z,20.00
2022-08-28T17:10:52.806Z,20.00
2022-08-28T17:13:22.164Z,20.00
2022-08-28T17:15:53.128Z,20.10
2022-08-28T17:18:21.515Z,20.10
2022-08-28T17:21:06.196Z,20.00
2022-08-28T17:23:36.218Z,19.90
2022-08-28T17:26:06.246Z,19.80
2022-08-28T17:28:35.920Z,19.70
2022-08-28T17:31:04.224Z,19.70
2022-08-28T17:33:32.543Z,19.60
2022-08-28T17:36:00.575Z,19.60
2022-08-28T17:38:28.580Z,19.60
2022-08-28T17:40:56.642Z,19.40
2022-08-28T17:43:26.759Z,19.20
2022-08-28T17:45:59.315Z,19.20
2022-08-28T17:48:27.279Z,19.20
2022-08-28T17:50:55.457Z,19.20
2022-08-28T17:53:27.697Z,19.10
2022-08-28T17:55:56.020Z,19.10
2022-08-28T17:58:24.322Z,19.00
2022-08-28T18:00:52.311Z,18.80
2022-08-28T18:03:21.731Z,18.80
2022-08-28T18:05:51.200Z,18.80
2022-08-28T18:08:19.411Z,18.70
2022-08-28T18:10:47.417Z,18.70
2022-08-28T18:13:16.385Z,18.60
2022-08-28T18:15:44.991Z,18.50
2022-08-28T18:18:27.471Z,18.50
2022-08-28T18:21:05.824Z,18.50
2022-08-28T18:23:34.232Z,18.40
2022-08-28T18:26:05.106Z,18.40
2022-08-28T18:28:33.422Z,18.30
2022-08-28T18:31:02.637Z,18.20
2022-08-28T18:33:34.370Z,18.20
2022-08-28T18:36:02.574Z,18.30
2022-08-28T18:38:34.898Z,18.30
2022-08-28T18:41:05.940Z,18.30
2022-08-28T18:43:36.630Z,18.40
2022-08-28T18:46:06.341Z,18.40
2022-08-28T18:48:36.361Z,18.30
2022-08-28T18:51:09.521Z,18.40
2022-08-28T18:53:37.895Z,18.40
2022-08-28T18:56:12.279Z,18.50
2022-08-28T18:58:41.221Z,18.50
2022-08-28T19:01:10.240Z,18.50
2022-08-28T19:03:39.765Z,18.50
2022-08-28T19:06:08.373Z,18.50
2022-08-28T19:08:37.727Z,18.50
2022-08-28T19:11:08.893Z,18.50
2022-08-28T19:13:36.989Z,18.50
2022-08-28T19:16:06.125Z,18.50
2022-08-28T19:18:35.079Z,18.50
2022-08-28T19:21:10.375Z,18.40
2022-08-28T19:23:55.424Z,18.40
2022-08-28T19:26:27.286Z,18.40
2022-08-28T19:28:55.903Z,18.40
2022-08-28T19:31:28.130Z,18.40
2022-08-28T19:33:56.997Z,18.50
2022-08-28T19:36:27.310Z,18.30
2022-08-28T19:38:55.331Z,18.30
2022-08-28T19:41:23.905Z,18.30
2022-08-28T19:43:52.196Z,18.30
2022-08-28T19:46:20.820Z,18.30
2022-08-28T19:48:49.491Z,18.30
2022-08-28T19:51:23.202Z,18.20
2022-08-28T19:53:57.756Z,18.20
2022-08-28T19:56:28.270Z,18.20
2022-08-28T19:58:57.615Z,18.10
2022-08-28T20:01:25.843Z,18.10
2022-08-28T20:03:53.870Z,18.10
2022-08-28T20:06:21.976Z,18.10
2022-08-28T20:08:50.063Z,18.10
2022-08-28T20:11:25.192Z,18.10
2022-08-28T20:13:53.736Z,18.10
2022-08-28T20:16:21.800Z,18.10
2022-08-28T20:18:51.022Z,18.10
2022-08-28T20:21:36.741Z,18.00
2022-08-28T20:24:07.637Z,18.00
2022-08-28T20:26:37.440Z,18.00
2022-08-28T20:29:07.647Z,18.00
2022-08-28T20:31:38.240Z,17.90
2022-08-28T20:34:06.206Z,17.90
2022-08-28T20:36:34.217Z,17.90
2022-08-28T20:39:07.382Z,18.00
2022-08-28T20:41:38.561Z,18.00
2022-08-28T20:44:07.937Z,18.00
2022-08-28T20:46:40.722Z,17.90
2022-08-28T20:49:09.803Z,17.90
2022-08-28T20:52:01.023Z,17.90
2022-08-28T20:54:32.055Z,17.80
2022-08-28T20:57:03.582Z,17.80
2022-08-28T20:59:39.721Z,17.90
2022-08-28T21:02:10.265Z,17.90
2022-08-28T21:04:39.450Z,17.90
2022-08-28T21:07:07.482Z,17.80
2022-08-28T21:10:04.007Z,17.80
2022-08-28T21:12:25.364Z,17.80
2022-08-28T21:14:53.454Z,17.70
2022-08-28T21:17:28.832Z,17.60
2022-08-28T21:20:10.269Z,17.50
2022-08-28T21:22:39.161Z,17.40
2022-08-28T21:25:08.715Z,17.40
2022-08-28T21:27:38.830Z,17.40
2022-08-28T21:30:08.879Z,17.40
2022-08-28T21:32:37.111Z,17.40
2022-08-28T21:35:07.327Z,17.40
2022-08-28T21:37:36.273Z,17.40
2022-08-28T21:40:07.021Z,17.30
2022-08-28T21:42:37.404Z,17.30
2022-08-28T21:45:11.701Z,17.10
2022-08-28T21:47:40.355Z,17.10
2022-08-28T21:50:10.690Z,17.10
2022-08-28T21:52:39.127Z,17.10
2022-08-28T21:55:10.095Z,17.10
2022-08-28T21:57:39.822Z,17.10
2022-08-28T22:00:10.105Z,17.00
2022-08-28T22:02:38.207Z,17.00
2022-08-28T22:05:06.602Z,17.00
2022-08-28T22:07:34.727Z,16.90
2022-08-28T22:10:02.737Z,16.90
2022-08-28T22:12:31.027Z,16.90
2022-08-28T22:15:02.589Z,16.90
2022-08-28T22:17:30.670Z,16.90
2022-08-28T22:19:58.675Z,16.90
2022-08-28T22:22:44.915Z,16.90
2022-08-28T22:25:14.798Z,17.00
2022-08-28T22:27:42.982Z,17.00
2022-08-28T22:30:13.933Z,16.90
2022-08-28T22:32:41.944Z,16.80
2022-08-28T22:35:10.641Z,16.80
2022-08-28T22:37:38.928Z,16.80
2022-08-28T22:40:12.890Z,16.90
2022-08-28T22:42:41.855Z,16.90
2022-08-28T22:45:10.550Z,16.80
2022-08-28T22:47:39.841Z,16.80
2022-08-28T22:50:09.267Z,16.80
2022-08-28T22:52:38.224Z,16.80
2022-08-28T22:55:10.766Z,16.80
2022-08-28T22:57:40.929Z,16.80
2022-08-28T23:00:11.617Z,16.80
2022-08-28T23:02:42.863Z,16.80
2022-08-28T23:05:11.062Z,16.80
2022-08-28T23:07:39.511Z,16.70
2022-08-28T23:10:09.207Z,16.70
2022-08-28T23:12:37.183Z,16.60
2022-08-28T23:15:07.357Z,16.60
2022-08-28T23:17:35.358Z,16.70
2022-08-28T23:20:07.780Z,16.70
2022-08-28T23:22:38.754Z,16.70
2022-08-28T23:25:08.080Z,16.80
2022-08-28T23:27:36.804Z,16.80
2022-08-28T23:30:06.898Z,16.80
2022-08-28T23:32:35.501Z,16.80
2022-08-28T23:35:07.346Z,16.80
2022-08-28T23:37:36.986Z,16.80
2022-08-28T23:40:07.621Z,16.80
2022-08-28T23:42:35.790Z,16.80
2022-08-28T23:45:05.225Z,16.80
2022-08-28T23:47:33.347Z,16.80
2022-08-28T23:50:01.703Z,16.80
2022-08-28T23:52:32.141Z,16.80
2022-08-28T23:55:01.085Z,16.80
2022-08-28T23:57:29.267Z,16.80
2022-08-28T23:59:57.739Z,16.80
